Time;durP1;ratioP1;P1;durP2;ratioP2;P2;SDS_P1;SDS_P2;PMS_P1;PMS_P2;Temp;Humidity;BMP_temperature;BMP_pressure;BME280_temperature;BME280_humidity;BME280_pressure;Samples;Min_cycle;Max_cycle;Signal;HPM_P1;HPM_P2
2021/12/30 00:00:44;;;;;;;1.67;0.60;;;12.20;99.90;;;;;;5032034;28;20425;-78
2021/12/30 00:03:10;;;;;;;0.70;0.40;;;12.20;99.90;;;;;;5031740;28;20421;-79
2021/12/30 00:05:36;;;;;;;0.67;0.40;;;12.20;99.90;;;;;;5031880;28;20458;-78
2021/12/30 00:08:02;;;;;;;4.00;0.40;;;12.20;99.90;;;;;;5034529;28;20446;-78
2021/12/30 00:10:28;;;;;;;0.60;0.30;;;12.20;99.90;;;;;;5035282;28;20574;-77
2021/12/30 00:12:54;;;;;;;1.10;0.60;;;12.20;99.90;;;;;;5034569;28;20506;-78
2021/12/30 00:15:21;;;;;;;0.60;0.40;;;12.20;99.90;;;;;;5017168;28;20203;-78
2021/12/30 00:17:47;;;;;;;0.63;0.40;;;12.20;99.90;;;;;;5034373;28;20435;-78
2021/12/30 00:20:13;;;;;;;0.60;0.30;;;12.20;99.90;;;;;;5034624;28;20815;-78
2021/12/30 00:22:41;;;;;;;1.73;0.37;;;12.20;99.90;;;;;;5033980;28;20426;-77
2021/12/30 00:25:08;;;;;;;0.70;0.43;;;12.20;99.90;;;;;;5034292;28;20798;-78
2021/12/30 00:27:34;;;;;;;0.60;0.30;;;12.20;99.90;;;;;;5032911;28;20426;-79
2021/12/30 00:29:59;;;;;;;0.60;0.40;;;12.20;99.90;;;;;;5032599;28;20420;-77
2021/12/30 00:32:28;;;;;;;0.60;0.40;;;12.20;99.90;;;;;;5035332;28;20180;-77
2021/12/30 00:34:54;;;;;;;0.97;0.60;;;12.20;99.90;;;;;;5035633;28;20669;-78
2021/12/30 00:37:19;;;;;;;0.63;0.40;;;12.20;99.90;;;;;;5034234;28;20425;-78
2021/12/30 00:39:45;;;;;;;1.57;0.50;;;12.20;99.90;;;;;;5031072;28;20269;-78
2021/12/30 00:42:11;;;;;;;1.03;0.40;;;12.20;99.90;;;;;;5032490;28;20190;-78
2021/12/30 00:44:36;;;;;;;0.70;0.40;;;12.30;99.90;;;;;;5030825;28;20243;-79
2021/12/30 00:47:03;;;;;;;2.10;0.50;;;12.30;99.90;;;;;;5031743;28;20175;-79
2021/12/30 00:49:28;;;;;;;1.43;0.40;;;12.30;99.90;;;;;;5030274;28;20222;-78
2021/12/30 00:51:55;;;;;;;0.70;0.40;;;12.30;99.90;;;;;;4997809;28;20479;-78
2021/12/30 00:54:21;;;;;;;1.17;0.50;;;12.30;99.90;;;;;;5031691;28;20174;-78
2021/12/30 00:56:47;;;;;;;1.37;0.40;;;12.30;99.90;;;;;;5029861;28;20433;-78
2021/12/30 00:59:12;;;;;;;0.80;0.40;;;12.20;99.90;;;;;;5013014;28;20493;-77
2021/12/30 01:01:38;;;;;;;2.50;0.50;;;12.20;99.90;;;;;;5030650;28;20219;-78
2021/12/30 01:04:04;;;;;;;0.90;0.40;;;12.30;99.90;;;;;;5030323;28;20254;-78
2021/12/30 01:06:30;;;;;;;0.97;0.43;;;12.30;99.90;;;;;;5013881;28;20195;-78
2021/12/30 01:08:57;;;;;;;0.90;0.40;;;12.30;99.90;;;;;;5030031;28;20492;-78
2021/12/30 01:11:24;;;;;;;0.70;0.43;;;12.30;99.90;;;;;;5013273;28;20604;-79
2021/12/30 01:13:58;;;;;;;0.60;0.40;;;12.30;99.90;;;;;;5029716;28;20429;-80
2021/12/30 01:16:24;;;;;;;0.70;0.50;;;12.30;99.90;;;;;;5029141;28;20415;-78
2021/12/30 01:21:20;;;;;;;2.20;0.50;;;12.30;99.90;;;;;;5032365;28;20830;-78
2021/12/30 01:23:46;;;;;;;2.03;0.47;;;12.20;99.90;;;;;;5030235;28;20523;-78
2021/12/30 01:26:11;;;;;;;2.10;0.40;;;12.10;99.90;;;;;;5031588;28;20414;-78
2021/12/30 01:28:37;;;;;;;1.30;0.40;;;12.10;99.90;;;;;;5013359;28;20215;-78
2021/12/30 01:31:04;;;;;;;0.70;0.50;;;12.10;99.90;;;;;;5031169;28;20249;-79
2021/12/30 01:33:30;;;;;;;2.70;0.50;;;12.10;99.90;;;;;;5029707;28;20421;-78
2021/12/30 01:35:56;;;;;;;0.60;0.40;;;12.00;99.90;;;;;;5030668;28;20506;-78
2021/12/30 01:38:22;;;;;;;0.97;0.37;;;12.00;99.90;;;;;;5030737;28;20214;-78
2021/12/30 01:40:51;;;;;;;0.60;0.30;;;12.00;99.90;;;;;;5030313;28;20425;-78
2021/12/30 01:43:17;;;;;;;0.83;0.40;;;12.00;99.90;;;;;;5031218;28;20191;-78
2021/12/30 01:45:43;;;;;;;0.70;0.50;;;12.00;99.90;;;;;;5030083;28;20419;-78
2021/12/30 01:48:09;;;;;;;0.70;0.40;;;12.00;99.90;;;;;;5031207;28;21112;-78
2021/12/30 01:50:35;;;;;;;0.60;0.30;;;11.90;99.90;;;;;;5029595;28;20448;-79
2021/12/30 01:53:03;;;;;;;1.43;0.40;;;11.90;99.90;;;;;;5031561;28;20501;-77
2021/12/30 01:55:29;;;;;;;1.33;0.40;;;11.90;99.90;;;;;;5030419;28;20426;-78
2021/12/30 01:57:55;;;;;;;1.27;0.50;;;12.00;99.90;;;;;;5030460;28;21033;-78
2021/12/30 02:00:23;;;;;;;0.70;0.40;;;12.00;99.90;;;;;;5031636;28;20511;-77
2021/12/30 02:02:49;;;;;;;0.73;0.53;;;12.10;99.90;;;;;;5030427;28;20186;-78
2021/12/30 02:05:15;;;;;;;0.60;0.37;;;12.10;99.90;;;;;;5029681;28;20480;-78
2021/12/30 02:07:41;;;;;;;0.70;0.30;;;12.10;99.90;;;;;;5029636;28;20182;-77
2021/12/30 02:10:07;;;;;;;0.70;0.50;;;12.10;99.90;;;;;;5031857;28;21046;-77
2021/12/30 02:12:36;;;;;;;0.70;0.40;;;12.10;99.90;;;;;;5043919;28;20968;-76
2021/12/30 02:15:07;;;;;;;0.70;0.43;;;12.10;99.90;;;;;;5035056;28;20433;-79
2021/12/30 02:17:33;;;;;;;0.80;0.50;;;12.10;99.90;;;;;;5031880;28;20447;-79
2021/12/30 02:20:01;;;;;;;0.60;0.40;;;12.10;99.90;;;;;;5034153;28;20452;-80
2021/12/30 02:22:27;;;;;;;0.70;0.50;;;12.00;99.90;;;;;;5035403;28;20183;-80
2021/12/30 02:24:53;;;;;;;2.40;0.40;;;12.00;99.90;;;;;;5019592;28;20474;-80
2021/12/30 02:27:19;;;;;;;0.60;0.40;;;12.00;99.90;;;;;;5037230;28;20193;-78
2021/12/30 02:29:45;;;;;;;1.17;0.50;;;12.00;99.90;;;;;;5034143;28;20954;-80
2021/12/30 02:32:10;;;;;;;1.00;0.57;;;12.00;99.90;;;;;;5033323;28;20422;-78
2021/12/30 02:34:38;;;;;;;1.10;0.40;;;11.90;99.90;;;;;;5036125;28;20683;-78
2021/12/30 02:37:04;;;;;;;1.10;0.40;;;11.90;99.90;;;;;;5020552;28;20199;-78
2021/12/30 02:39:30;;;;;;;0.90;0.50;;;11.90;99.90;;;;;;5037616;28;20449;-78
2021/12/30 02:41:56;;;;;;;2.40;0.60;;;11.90;99.90;;;;;;5035293;28;20430;-80
2021/12/30 02:44:22;;;;;;;0.80;0.40;;;12.00;99.90;;;;;;5035598;28;20976;-79
2021/12/30 02:46:53;;;;;;;1.10;0.30;;;12.00;99.90;;;;;;5041219;28;20420;-80
2021/12/30 02:49:19;;;;;;;0.80;0.40;;;12.00;99.90;;;;;;5038359;28;20272;-79
2021/12/30 02:51:45;;;;;;;0.60;0.40;;;12.00;99.90;;;;;;5038552;28;20457;-79
2021/12/30 02:54:10;;;;;;;2.70;0.50;;;12.00;99.90;;;;;;5040074;28;20422;-80
2021/12/30 02:56:36;;;;;;;1.30;0.50;;;12.00;99.90;;;;;;5038671;28;20189;-79
2021/12/30 02:59:03;;;;;;;0.83;0.43;;;12.00;99.90;;;;;;5038062;28;20559;-79
2021/12/30 03:01:31;;;;;;;1.10;0.70;;;12.00;99.90;;;;;;5035694;28;20238;-79
2021/12/30 03:03:58;;;;;;;0.90;0.50;;;12.10;99.90;;;;;;5036101;28;20473;-79
2021/12/30 03:06:24;;;;;;;0.80;0.40;;;12.10;99.90;;;;;;5038099;28;20479;-79
2021/12/30 03:08:52;;;;;;;0.60;0.40;;;12.10;99.90;;;;;;5037651;28;20449;-80
2021/12/30 03:11:20;;;;;;;1.83;0.50;;;12.20;99.90;;;;;;5036271;28;20493;-80
2021/12/30 03:13:47;;;;;;;1.17;0.47;;;12.20;99.90;;;;;;5036240;28;20417;-78
2021/12/30 03:16:15;;;;;;;0.80;0.43;;;12.10;99.90;;;;;;5035118;28;20448;-79
2021/12/30 03:18:45;;;;;;;2.03;0.40;;;12.20;99.90;;;;;;5033876;28;20481;-78
2021/12/30 03:21:12;;;;;;;1.37;0.50;;;12.20;99.90;;;;;;5036648;28;20421;-79
2021/12/30 03:23:38;;;;;;;0.60;0.40;;;12.20;99.90;;;;;;5036871;28;21009;-79
2021/12/30 03:26:06;;;;;;;1.73;0.40;;;12.30;99.90;;;;;;5038227;28;20500;-78
2021/12/30 03:28:31;;;;;;;1.00;0.40;;;12.20;99.90;;;;;;5038879;28;20626;-79
2021/12/30 03:30:59;;;;;;;0.60;0.40;;;12.30;99.90;;;;;;5042083;28;20444;-79
2021/12/30 03:33:28;;;;;;;0.60;0.30;;;12.30;99.90;;;;;;5022651;28;20436;-78
2021/12/30 03:35:54;;;;;;;0.70;0.40;;;12.30;99.90;;;;;;5041584;28;20414;-80
2021/12/30 03:38:20;;;;;;;3.50;0.40;;;12.30;99.90;;;;;;5039438;28;20441;-80
2021/12/30 03:40:46;;;;;;;1.00;0.40;;;12.20;99.90;;;;;;5039902;28;20501;-81
2021/12/30 03:43:11;;;;;;;4.00;0.50;;;12.20;99.90;;;;;;5035784;28;20255;-78
2021/12/30 03:45:37;;;;;;;0.60;0.40;;;12.20;99.90;;;;;;5036118;28;20425;-78
2021/12/30 03:48:03;;;;;;;0.60;0.40;;;12.30;99.90;;;;;;5034686;28;20214;-79
2021/12/30 03:50:29;;;;;;;0.80;0.40;;;12.30;99.90;;;;;;5034497;28;20265;-80
2021/12/30 03:52:58;;;;;;;1.83;0.40;;;12.30;99.90;;;;;;5035208;28;20177;-78
2021/12/30 03:55:27;;;;;;;0.70;0.40;;;12.40;99.90;;;;;;5033648;28;20454;-78
2021/12/30 03:57:53;;;;;;;1.20;0.60;;;12.30;99.90;;;;;;5033270;28;20459;-80
2021/12/30 04:00:21;;;;;;;1.20;0.40;;;12.30;99.90;;;;;;5036524;28;20430;-78
2021/12/30 04:02:47;;;;;;;1.70;0.50;;;12.30;99.90;;;;;;5035921;28;20432;-78
2021/12/30 04:05:13;;;;;;;0.60;0.40;;;12.40;99.90;;;;;;5035758;28;20466;-78
2021/12/30 04:07:39;;;;;;;2.13;0.40;;;12.30;99.90;;;;;;5033767;28;20449;-79
2021/12/30 04:10:08;;;;;;;0.90;0.47;;;12.40;99.90;;;;;;5035604;28;20549;-78
2021/12/30 04:12:34;;;;;;;1.17;0.60;;;12.40;99.90;;;;;;5035025;28;20426;-78
2021/12/30 04:15:04;;;;;;;0.90;0.50;;;12.40;99.90;;;;;;5017012;28;20529;-78
2021/12/30 04:17:29;;;;;;;0.70;0.40;;;12.40;99.90;;;;;;5033875;28;20443;-77
2021/12/30 04:19:55;;;;;;;0.60;0.30;;;12.50;99.90;;;;;;5030592;28;20441;-78
2021/12/30 04:22:21;;;;;;;0.83;0.47;;;12.50;99.90;;;;;;5030889;28;20189;-78
2021/12/30 04:24:47;;;;;;;0.63;0.40;;;12.50;99.90;;;;;;5033153;28;20296;-79
2021/12/30 04:27:13;;;;;;;2.00;0.50;;;12.50;99.90;;;;;;5033653;28;20185;-77
2021/12/30 04:29:39;;;;;;;0.60;0.40;;;12.50;99.90;;;;;;5034845;28;20508;-78
2021/12/30 04:32:05;;;;;;;1.10;0.40;;;12.50;99.90;;;;;;5033593;28;20580;-78
2021/12/30 04:34:30;;;;;;;1.27;0.50;;;12.50;99.90;;;;;;5034034;28;20222;-78
2021/12/30 04:36:59;;;;;;;0.60;0.40;;;12.50;99.90;;;;;;5031705;28;20516;-78
2021/12/30 04:39:29;;;;;;;1.47;0.40;;;12.50;99.90;;;;;;5034171;28;20218;-79
2021/12/30 04:41:58;;;;;;;1.83;0.40;;;12.50;99.90;;;;;;5033101;28;20970;-78
2021/12/30 04:44:27;;;;;;;0.80;0.40;;;12.50;99.90;;;;;;5032176;28;20938;-80
2021/12/30 04:46:52;;;;;;;0.60;0.40;;;12.50;99.90;;;;;;5031754;28;20434;-79
2021/12/30 04:49:18;;;;;;;1.07;0.40;;;12.40;99.90;;;;;;5031397;28;20461;-78
2021/12/30 04:51:43;;;;;;;0.60;0.30;;;12.40;99.90;;;;;;5031885;28;20709;-78
2021/12/30 04:54:09;;;;;;;0.60;0.37;;;12.40;99.90;;;;;;5033726;28;20186;-77
2021/12/30 04:56:35;;;;;;;0.90;0.30;;;12.40;99.90;;;;;;5032457;28;20601;-78
2021/12/30 04:59:00;;;;;;;0.60;0.40;;;12.40;99.90;;;;;;5031778;28;20206;-78
2021/12/30 05:01:26;;;;;;;0.60;0.30;;;12.30;99.90;;;;;;5032988;28;20562;-79
2021/12/30 05:03:51;;;;;;;0.60;0.33;;;12.40;99.90;;;;;;5031727;28;20217;-78
2021/12/30 05:06:17;;;;;;;0.90;0.40;;;12.40;99.90;;;;;;5030828;28;20245;-78
2021/12/30 05:08:43;;;;;;;0.70;0.40;;;12.30;99.90;;;;;;5031108;28;20216;-77
2021/12/30 05:11:09;;;;;;;2.00;0.40;;;12.40;99.90;;;;;;5031956;28;20217;-78
2021/12/30 05:13:35;;;;;;;0.80;0.40;;;12.40;99.90;;;;;;5032262;28;20210;-80
2021/12/30 05:16:01;;;;;;;0.70;0.30;;;12.40;99.90;;;;;;5029965;28;20471;-80
2021/12/30 05:18:31;;;;;;;1.10;0.40;;;12.40;99.90;;;;;;5029369;28;20226;-78
2021/12/30 05:20:59;;;;;;;1.00;0.40;;;12.50;99.90;;;;;;5033416;28;20184;-78
2021/12/30 05:23:25;;;;;;;0.70;0.40;;;12.50;99.90;;;;;;5034371;28;20430;-78
2021/12/30 05:25:50;;;;;;;1.00;0.50;;;12.50;99.90;;;;;;5033913;28;20421;-79
2021/12/30 05:28:16;;;;;;;2.10;0.80;;;12.60;99.90;;;;;;5029980;28;20448;-77
2021/12/30 05:30:42;;;;;;;1.00;0.40;;;12.60;99.90;;;;;;5030374;28;20614;-77
2021/12/30 05:33:08;;;;;;;1.10;0.40;;;12.60;99.90;;;;;;5029961;28;20197;-77
2021/12/30 05:35:34;;;;;;;0.97;0.40;;;12.70;99.90;;;;;;5029643;28;20183;-77
2021/12/30 05:38:01;;;;;;;0.60;0.30;;;12.70;99.90;;;;;;5029910;28;20496;-77
2021/12/30 05:40:27;;;;;;;0.60;0.30;;;12.70;99.90;;;;;;5028919;28;20214;-77
2021/12/30 05:42:53;;;;;;;0.60;0.40;;;12.80;99.90;;;;;;5029660;28;20437;-77
2021/12/30 05:45:20;;;;;;;0.60;0.40;;;12.80;99.90;;;;;;5029141;28;20466;-78
2021/12/30 05:47:48;;;;;;;0.70;0.40;;;12.70;99.90;;;;;;5027473;28;20189;-77
2021/12/30 05:50:17;;;;;;;0.60;0.37;;;12.80;99.90;;;;;;5029262;28;20455;-77
2021/12/30 05:52:43;;;;;;;0.60;0.30;;;12.80;99.90;;;;;;5029499;28;20519;-77
2021/12/30 05:55:09;;;;;;;0.80;0.40;;;12.80;99.90;;;;;;5028311;28;20516;-77
2021/12/30 05:57:35;;;;;;;0.67;0.40;;;12.90;99.90;;;;;;5029179;28;20499;-77
2021/12/30 06:00:00;;;;;;;0.60;0.40;;;12.90;99.90;;;;;;5027697;28;20985;-77
2021/12/30 06:02:26;;;;;;;0.70;0.30;;;12.90;99.90;;;;;;5028270;28;20190;-77
2021/12/30 06:04:52;;;;;;;0.60;0.40;;;12.90;99.90;;;;;;5029789;28;20211;-78
2021/12/30 06:07:17;;;;;;;1.47;0.30;;;12.90;99.90;;;;;;5029666;28;20179;-78
2021/12/30 06:09:43;;;;;;;0.60;0.40;;;12.90;99.90;;;;;;5011646;28;20562;-77
2021/12/30 06:12:09;;;;;;;0.60;0.33;;;12.90;99.90;;;;;;5028978;28;20559;-77
2021/12/30 06:14:35;;;;;;;0.83;0.30;;;12.90;99.90;;;;;;5029385;28;20188;-77
2021/12/30 06:17:00;;;;;;;0.60;0.30;;;12.90;99.90;;;;;;5028834;28;20436;-78
2021/12/30 06:19:26;;;;;;;0.60;0.40;;;12.90;99.90;;;;;;4995315;28;20632;-78
2021/12/30 06:21:52;;;;;;;0.70;0.50;;;12.90;99.90;;;;;;5027988;28;20554;-78
2021/12/30 06:24:17;;;;;;;0.60;0.30;;;12.90;99.90;;;;;;5029238;28;20224;-78
2021/12/30 06:26:43;;;;;;;0.70;0.40;;;13.00;99.90;;;;;;5029051;28;20198;-78
2021/12/30 06:29:09;;;;;;;0.60;0.30;;;13.00;99.90;;;;;;5027477;28;20233;-78
2021/12/30 06:31:37;;;;;;;0.60;0.30;;;13.00;99.90;;;;;;5030004;28;20187;-79
2021/12/30 06:34:02;;;;;;;0.60;0.30;;;13.00;99.90;;;;;;5028205;28;20183;-77
2021/12/30 06:36:28;;;;;;;0.83;0.30;;;13.00;99.90;;;;;;5029406;28;20847;-76
2021/12/30 06:38:54;;;;;;;0.70;0.50;;;13.00;99.90;;;;;;5027812;28;20211;-76
2021/12/30 06:41:19;;;;;;;0.60;0.30;;;13.10;99.90;;;;;;5030513;28;20200;-78
2021/12/30 06:43:45;;;;;;;2.00;0.47;;;13.00;99.90;;;;;;5028416;28;20264;-78
2021/12/30 06:46:11;;;;;;;0.60;0.30;;;13.00;99.90;;;;;;5029117;28;20182;-77
2021/12/30 06:48:38;;;;;;;0.60;0.30;;;12.90;99.90;;;;;;5029032;28;20194;-78
2021/12/30 06:51:05;;;;;;;0.60;0.30;;;12.90;99.90;;;;;;5028997;28;20449;-78
2021/12/30 06:53:33;;;;;;;1.10;0.33;;;12.90;99.90;;;;;;5029103;28;20412;-78
2021/12/30 06:55:58;;;;;;;0.80;0.30;;;12.80;99.90;;;;;;5029141;28;20411;-78
2021/12/30 06:58:24;;;;;;;2.10;0.37;;;12.90;99.90;;;;;;5029200;28;20444;-78
2021/12/30 07:00:50;;;;;;;0.80;0.30;;;12.90;99.90;;;;;;5027795;28;20187;-78
2021/12/30 07:03:17;;;;;;;0.60;0.30;;;12.80;99.90;;;;;;5029228;28;20186;-78
2021/12/30 07:05:43;;;;;;;1.00;0.30;;;12.80;99.90;;;;;;5027757;28;20409;-78
2021/12/30 07:08:08;;;;;;;2.20;0.40;;;12.80;99.90;;;;;;5029065;28;20445;-78
2021/12/30 07:10:34;;;;;;;0.60;0.40;;;12.80;99.90;;;;;;5029013;28;20424;-78
2021/12/30 07:13:00;;;;;;;0.60;0.30;;;12.80;99.90;;;;;;5027845;28;20261;-78
2021/12/30 07:15:25;;;;;;;0.60;0.40;;;12.80;99.90;;;;;;5029196;28;20229;-77
2021/12/30 07:17:51;;;;;;;0.60;0.30;;;12.80;99.90;;;;;;5027620;28;20203;-77
2021/12/30 07:20:17;;;;;;;0.70;0.40;;;12.80;99.90;;;;;;5028940;28;20708;-78
2021/12/30 07:22:42;;;;;;;0.60;0.30;;;12.80;99.90;;;;;;5028914;28;20186;-78
2021/12/30 07:25:10;;;;;;;0.60;0.30;;;12.80;99.90;;;;;;5029372;28;20206;-76
2021/12/30 07:27:36;;;;;;;0.80;0.50;;;12.90;99.90;;;;;;5029287;28;20198;-77
2021/12/30 07:30:02;;;;;;;0.60;0.30;;;12.90;99.90;;;;;;5029170;28;20445;-77
2021/12/30 07:32:28;;;;;;;0.60;0.37;;;12.90;99.90;;;;;;5031915;28;20175;-77
2021/12/30 07:34:54;;;;;;;0.60;0.30;;;12.90;99.90;;;;;;5033149;28;20418;-78
2021/12/30 07:37:20;;;;;;;0.60;0.30;;;12.90;99.90;;;;;;5033191;28;20424;-77
2021/12/30 07:39:47;;;;;;;0.60;0.30;;;12.90;99.90;;;;;;5033080;28;20921;-78
2021/12/30 07:42:13;;;;;;;5.70;0.40;;;12.90;99.90;;;;;;5033015;28;20430;-77
2021/12/30 07:44:39;;;;;;;0.70;0.40;;;12.90;99.90;;;;;;5032911;28;20974;-77
2021/12/30 07:47:06;;;;;;;1.37;0.30;;;13.00;99.90;;;;;;5033023;28;20410;-78
2021/12/30 07:49:32;;;;;;;0.80;0.40;;;13.00;99.90;;;;;;5032130;28;20444;-76
2021/12/30 07:51:59;;;;;;;0.70;0.40;;;13.00;99.90;;;;;;5031958;28;21046;-79
2021/12/30 07:54:25;;;;;;;0.70;0.40;;;13.00;99.90;;;;;;5032032;28;20492;-78
2021/12/30 07:56:51;;;;;;;0.60;0.40;;;12.90;99.90;;;;;;5031971;28;20414;-78
2021/12/30 07:59:16;;;;;;;2.10;1.23;;;12.90;99.90;;;;;;5031978;28;20915;-77
2021/12/30 08:01:42;;;;;;;0.80;0.40;;;12.90;99.90;;;;;;5032127;28;20181;-78
2021/12/30 08:04:08;;;;;;;0.90;0.40;;;12.90;99.90;;;;;;5031735;28;20209;-78
2021/12/30 08:06:34;;;;;;;0.63;0.40;;;13.00;99.90;;;;;;5030375;28;20417;-77
2021/12/30 08:08:59;;;;;;;1.10;0.30;;;13.00;99.90;;;;;;5030101;28;20203;-76
2021/12/30 08:11:25;;;;;;;1.33;0.40;;;13.00;99.90;;;;;;5030210;28;20429;-77
2021/12/30 08:13:51;;;;;;;0.60;0.40;;;13.00;99.90;;;;;;5030230;28;20290;-79
2021/12/30 08:16:16;;;;;;;2.10;0.40;;;13.00;99.90;;;;;;5030212;28;20189;-78
2021/12/30 08:18:42;;;;;;;0.70;0.40;;;13.00;99.90;;;;;;5029907;28;20204;-78
2021/12/30 08:21:09;;;;;;;0.70;0.33;;;13.00;99.90;;;;;;5028386;28;20191;-76
2021/12/30 08:23:35;;;;;;;3.77;0.33;;;13.00;99.90;;;;;;5030741;28;20891;-76
2021/12/30 08:26:02;;;;;;;0.60;0.40;;;13.10;99.90;;;;;;5029654;28;21152;-78
2021/12/30 08:28:28;;;;;;;0.60;0.30;;;13.10;99.90;;;;;;5029524;28;20443;-78
2021/12/30 08:30:54;;;;;;;0.60;0.30;;;13.10;99.90;;;;;;5029760;28;20428;-78
2021/12/30 08:33:20;;;;;;;2.00;0.40;;;13.20;99.90;;;;;;5029507;28;20186;-77
2021/12/30 08:35:45;;;;;;;0.60;0.30;;;13.20;99.90;;;;;;5029733;28;20188;-78
2021/12/30 08:38:12;;;;;;;0.70;0.40;;;13.20;99.90;;;;;;5029315;28;20544;-78
2021/12/30 08:40:38;;;;;;;1.20;0.40;;;13.30;99.90;;;;;;5029365;28;20205;-77
2021/12/30 08:43:06;;;;;;;0.70;0.50;;;13.30;99.90;;;;;;5027558;28;20817;-78
2021/12/30 08:45:33;;;;;;;0.63;0.30;;;13.30;99.90;;;;;;5029126;28;20494;-77
2021/12/30 08:47:59;;;;;;;0.60;0.30;;;13.30;99.90;;;;;;5029170;28;20440;-77
2021/12/30 08:50:24;;;;;;;0.70;0.40;;;13.30;99.90;;;;;;5028935;28;20478;-78
2021/12/30 08:52:50;;;;;;;0.60;0.40;;;13.30;99.90;;;;;;5027576;28;20184;-77
2021/12/30 08:55:17;;;;;;;0.60;0.40;;;13.30;99.90;;;;;;5028672;28;20270;-77
2021/12/30 08:57:44;;;;;;;0.70;0.40;;;13.40;99.90;;;;;;5028677;28;20183;-77
2021/12/30 09:00:30;;;;;;;0.80;0.40;;;13.40;99.90;;;;;;5028853;28;20557;-78
2021/12/30 09:02:58;;;;;;;0.60;0.37;;;13.40;99.90;;;;;;5028667;28;20417;-78
2021/12/30 09:05:25;;;;;;;0.90;0.50;;;13.50;99.90;;;;;;5028759;28;20457;-78
2021/12/30 09:07:51;;;;;;;0.70;0.50;;;13.50;99.90;;;;;;5027210;28;20437;-77
2021/12/30 09:10:18;;;;;;;1.03;0.50;;;13.50;99.90;;;;;;5028550;28;20548;-77
2021/12/30 09:12:45;;;;;;;0.67;0.40;;;13.50;99.90;;;;;;5029833;28;21261;-78
2021/12/30 09:15:13;;;;;;;0.60;0.40;;;13.60;99.90;;;;;;5029864;28;20425;-79
2021/12/30 09:17:41;;;;;;;0.60;0.30;;;13.50;99.90;;;;;;5027808;28;21104;-77
2021/12/30 09:20:08;;;;;;;2.00;0.40;;;13.60;99.90;;;;;;5029456;28;20883;-78
2021/12/30 09:22:34;;;;;;;0.70;0.47;;;13.60;99.90;;;;;;5029272;28;20418;-77
2021/12/30 09:25:05;;;;;;;0.77;0.30;;;13.70;99.90;;;;;;5027556;28;21115;-78
2021/12/30 09:27:35;;;;;;;0.70;0.37;;;13.80;99.90;;;;;;5027492;28;20957;-77
2021/12/30 09:30:02;;;;;;;0.70;0.50;;;13.80;99.90;;;;;;5029140;28;20430;-78
2021/12/30 09:32:28;;;;;;;0.70;0.43;;;13.90;99.90;;;;;;5029722;28;21291;-76
2021/12/30 09:34:53;;;;;;;0.60;0.40;;;13.90;99.90;;;;;;5028082;28;20422;-77
2021/12/30 09:37:19;;;;;;;0.70;0.30;;;14.10;99.90;;;;;;5028025;28;20556;-77
2021/12/30 09:39:46;;;;;;;0.70;0.40;;;14.20;99.90;;;;;;5027664;28;20214;-77
2021/12/30 09:42:13;;;;;;;0.70;0.40;;;14.40;99.90;;;;;;5026406;28;20188;-77
2021/12/30 09:44:39;;;;;;;4.30;0.30;;;14.50;99.90;;;;;;5027632;28;20475;-78
2021/12/30 09:47:05;;;;;;;0.90;0.40;;;14.50;99.90;;;;;;5027917;28;20418;-77
2021/12/30 09:49:31;;;;;;;0.73;0.40;;;14.40;99.90;;;;;;5026665;28;20446;-77
2021/12/30 09:51:57;;;;;;;0.60;0.30;;;14.50;99.90;;;;;;5027944;28;20942;-76
2021/12/30 09:54:23;;;;;;;0.70;0.40;;;14.50;99.90;;;;;;5027089;28;20920;-76
2021/12/30 09:56:50;;;;;;;0.67;0.40;;;14.40;99.90;;;;;;5027788;28;20438;-77
2021/12/30 09:59:16;;;;;;;0.70;0.40;;;14.30;99.90;;;;;;5027832;28;20435;-77
2021/12/30 10:01:42;;;;;;;0.70;0.40;;;14.30;99.90;;;;;;5027629;28;20799;-78
2021/12/30 10:04:09;;;;;;;0.70;0.40;;;14.30;99.90;;;;;;5026296;28;20647;-78
2021/12/30 10:06:48;;;;;;;0.70;0.40;;;14.20;99.90;;;;;;5027763;28;20419;-78
2021/12/30 10:09:15;;;;;;;1.80;0.30;;;14.30;99.90;;;;;;5026079;28;20443;-77
2021/12/30 10:11:51;;;;;;;0.60;0.30;;;14.30;99.90;;;;;;5028041;28;20908;-78
2021/12/30 10:14:37;;;;;;;0.60;0.30;;;14.30;99.90;;;;;;5027999;28;20826;-77
2021/12/30 10:17:20;;;;;;;0.60;0.30;;;14.30;99.90;;;;;;5027982;28;21086;-77
2021/12/30 10:19:47;;;;;;;0.70;0.40;;;14.30;99.90;;;;;;5027661;28;20458;-76
2021/12/30 10:22:16;;;;;;;0.70;0.43;;;14.30;99.90;;;;;;5026690;28;20517;-76
2021/12/30 10:24:43;;;;;;;0.60;0.40;;;14.30;99.90;;;;;;5027993;28;20466;-77
2021/12/30 10:27:08;;;;;;;0.80;0.40;;;14.30;99.90;;;;;;5027808;28;20802;-76
2021/12/30 10:29:42;;;;;;;1.10;0.40;;;14.30;99.90;;;;;;5026371;28;20443;-76
2021/12/30 10:32:21;;;;;;;1.00;0.40;;;14.40;99.90;;;;;;5028116;28;20583;-78
2021/12/30 10:35:06;;;;;;;0.60;0.40;;;14.30;99.90;;;;;;5028000;28;20414;-77
2021/12/30 10:37:32;;;;;;;0.60;0.40;;;14.40;99.90;;;;;;5027801;28;20421;-77
2021/12/30 10:39:58;;;;;;;0.60;0.40;;;14.30;99.90;;;;;;5027929;28;20431;-75
2021/12/30 10:42:24;;;;;;;2.70;0.83;;;14.40;99.90;;;;;;5027939;28;20860;-76
2021/12/30 10:45:00;;;;;;;0.70;0.40;;;14.40;99.90;;;;;;5027925;28;20289;-76
2021/12/30 10:47:31;;;;;;;0.80;0.50;;;14.30;99.90;;;;;;5027885;28;20407;-76
2021/12/30 10:50:10;;;;;;;0.70;0.40;;;14.40;99.90;;;;;;5010174;28;20438;-77
2021/12/30 10:52:49;;;;;;;0.80;0.50;;;14.40;99.90;;;;;;5027624;28;20445;-77
2021/12/30 10:55:16;;;;;;;0.60;0.40;;;14.40;99.90;;;;;;5027800;28;20410;-77
2021/12/30 10:57:42;;;;;;;0.60;0.40;;;14.50;99.90;;;;;;5028039;28;20423;-78
2021/12/30 11:00:09;;;;;;;0.70;0.40;;;14.50;99.90;;;;;;5027159;28;20419;-77
2021/12/30 11:02:35;;;;;;;0.70;0.50;;;14.50;99.90;;;;;;5027099;28;20241;-78
2021/12/30 11:05:07;;;;;;;0.80;0.40;;;14.60;99.90;;;;;;5027502;28;20528;-75
2021/12/30 11:07:46;;;;;;;0.80;0.50;;;14.50;99.90;;;;;;5030778;28;20959;-77
2021/12/30 11:10:13;;;;;;;0.60;0.40;;;14.50;99.90;;;;;;5030621;28;20435;-77
2021/12/30 11:12:48;;;;;;;1.20;0.60;;;14.50;99.90;;;;;;5030850;28;20431;-77
2021/12/30 11:15:27;;;;;;;0.70;0.40;;;14.50;99.90;;;;;;5030962;28;20446;-77
2021/12/30 11:18:11;;;;;;;2.10;0.50;;;14.50;99.90;;;;;;5030667;28;20447;-77
2021/12/30 11:20:47;;;;;;;1.20;0.40;;;14.40;99.90;;;;;;5030534;28;21022;-76
2021/12/30 11:23:15;;;;;;;0.60;0.40;;;14.40;99.90;;;;;;5029381;28;20506;-76
2021/12/30 11:25:41;;;;;;;1.00;0.60;;;14.40;99.90;;;;;;5030713;28;20466;-78
2021/12/30 11:28:07;;;;;;;1.10;0.70;;;14.30;99.90;;;;;;5028859;28;20911;-77
2021/12/30 11:30:33;;;;;;;0.60;0.37;;;14.40;99.90;;;;;;5028775;28;20433;-78
2021/12/30 11:32:59;;;;;;;0.70;0.50;;;14.30;99.90;;;;;;5030385;28;20421;-77
2021/12/30 11:35:26;;;;;;;1.10;0.50;;;14.30;99.90;;;;;;5030313;28;20191;-76
2021/12/30 11:37:54;;;;;;;0.70;0.40;;;14.30;99.90;;;;;;5037179;28;20522;-78
2021/12/30 11:40:24;;;;;;;0.60;0.30;;;14.30;99.90;;;;;;5041931;28;20427;-77
2021/12/30 11:42:58;;;;;;;0.60;0.30;;;14.30;99.90;;;;;;5030339;28;20913;-77
2021/12/30 11:45:30;;;;;;;0.60;0.40;;;14.30;99.90;;;;;;5029931;28;21041;-77
2021/12/30 11:48:01;;;;;;;1.20;0.40;;;14.30;99.90;;;;;;5028724;28;20869;-76
2021/12/30 11:50:27;;;;;;;0.60;0.30;;;14.30;99.90;;;;;;5029139;28;20443;-76
2021/12/30 11:52:55;;;;;;;0.80;0.40;;;14.30;99.90;;;;;;5030088;28;20449;-77
2021/12/30 11:55:43;;;;;;;0.70;0.40;;;14.30;99.90;;;;;;5030001;28;20188;-76
2021/12/30 11:58:40;;;;;;;0.60;0.40;;;14.30;99.90;;;;;;5029962;28;21035;-76
2021/12/30 12:01:11;;;;;;;0.70;0.43;;;14.40;99.90;;;;;;5029770;28;20410;-77
2021/12/30 12:03:39;;;;;;;0.93;0.40;;;14.40;99.90;;;;;;5029954;28;20411;-76
2021/12/30 12:06:30;;;;;;;1.30;0.80;;;14.40;99.90;;;;;;5029881;28;20497;-76
2021/12/30 12:08:57;;;;;;;4.43;0.40;;;14.30;99.90;;;;;;5029753;28;21109;-77
2021/12/30 12:11:45;;;;;;;0.60;0.30;;;14.40;99.90;;;;;;5030221;28;20415;-76
2021/12/30 12:14:15;;;;;;;1.00;0.47;;;14.40;99.90;;;;;;5028592;28;20764;-76
2021/12/30 12:17:00;;;;;;;0.60;0.40;;;14.40;99.90;;;;;;5027614;28;20420;-76
2021/12/30 12:19:46;;;;;;;0.70;0.50;;;14.40;99.90;;;;;;5029612;28;21147;-77
2021/12/30 12:22:18;;;;;;;0.90;0.40;;;14.50;99.90;;;;;;5029663;28;20416;-76
2021/12/30 12:25:03;;;;;;;0.70;0.43;;;14.50;99.90;;;;;;5028101;28;20462;-76
2021/12/30 12:27:31;;;;;;;0.70;0.50;;;14.40;99.90;;;;;;5029585;28;20505;-77
2021/12/30 12:30:00;;;;;;;0.70;0.40;;;14.40;99.90;;;;;;5029699;28;20465;-78
2021/12/30 12:32:32;;;;;;;0.70;0.40;;;14.40;99.90;;;;;;5029910;28;20911;-74
2021/12/30 12:35:00;;;;;;;0.70;0.50;;;14.40;99.90;;;;;;5030840;28;20407;-75
2021/12/30 12:37:39;;;;;;;0.70;0.40;;;14.40;99.90;;;;;;5029961;28;20457;-77
2021/12/30 12:40:12;;;;;;;1.93;0.50;;;14.40;99.90;;;;;;5030767;28;20939;-76
2021/12/30 12:42:52;;;;;;;0.60;0.40;;;14.50;99.90;;;;;;5029923;28;20434;-75
2021/12/30 12:45:38;;;;;;;0.90;0.50;;;14.50;99.90;;;;;;5029533;28;21008;-76
2021/12/30 12:48:20;;;;;;;2.27;0.40;;;14.50;99.90;;;;;;5029560;28;20434;-74
2021/12/30 12:51:19;;;;;;;0.90;0.40;;;14.70;99.90;;;;;;5028936;28;20442;-76
2021/12/30 12:53:48;;;;;;;1.67;0.50;;;14.70;99.90;;;;;;5029029;28;20419;-76